createdAt,value
2023-02-14T00:00:40.176Z,43.83
2023-02-14T00:03:25.463Z,42.90
2023-02-14T00:06:11.039Z,45.47
2023-02-14T00:08:55.212Z,44.43
2023-02-14T00:11:39.242Z,42.43
2023-02-14T00:14:40.780Z,46.33
2023-02-14T00:17:24.478Z,45.03
2023-02-14T00:20:10.833Z,43.50
2023-02-14T00:22:54.929Z,41.30
2023-02-14T00:25:38.684Z,46.27
2023-02-14T00:28:22.527Z,50.93
2023-02-14T00:31:06.536Z,48.57
2023-02-14T00:33:50.462Z,43.53
2023-02-14T00:36:36.066Z,45.07
2023-02-14T00:39:21.234Z,45.50
2023-02-14T00:42:05.184Z,46.03
2023-02-14T00:44:49.062Z,44.17
2023-02-14T00:47:33.101Z,44.50
2023-02-14T00:50:17.200Z,42.70
2023-02-14T00:53:02.859Z,44.40
2023-02-14T00:55:47.314Z,44.47
2023-02-14T00:58:32.601Z,44.13
2023-02-14T01:01:18.195Z,46.87
2023-02-14T01:04:02.195Z,48.13
2023-02-14T01:06:46.109Z,46.70
2023-02-14T01:09:31.927Z,47.00
2023-02-14T01:12:19.214Z,51.53
2023-02-14T01:15:03.246Z,46.97
2023-02-14T01:17:48.538Z,47.07
2023-02-14T01:20:32.393Z,48.00
2023-02-14T01:23:16.314Z,48.07
2023-02-14T01:26:05.918Z,48.60
2023-02-14T01:28:50.084Z,45.97
2023-02-14T01:31:35.763Z,47.27
2023-02-14T01:34:19.768Z,44.97
2023-02-14T01:37:04.035Z,45.73
2023-02-14T01:39:47.783Z,49.17
2023-02-14T01:42:34.909Z,48.67
2023-02-14T01:45:22.718Z,51.13
2023-02-14T01:48:06.580Z,53.57
2023-02-14T01:50:53.882Z,54.03
2023-02-14T01:53:38.604Z,47.73
2023-02-14T01:56:29.293Z,46.53
2023-02-14T01:59:19.395Z,47.63
2023-02-14T02:02:03.621Z,46.53
2023-02-14T02:04:48.155Z,48.90
2023-02-14T02:07:31.946Z,45.97
2023-02-14T02:10:15.727Z,46.43
2023-02-14T02:13:03.255Z,48.37
2023-02-14T02:15:57.366Z,46.83
2023-02-14T02:18:59.723Z,48.43
2023-02-14T02:22:05.710Z,47.50
2023-02-14T02:24:57.381Z,48.40
2023-02-14T02:28:17.613Z,49.83
2023-02-14T02:31:29.551Z,49.07
2023-02-14T02:34:36.701Z,50.17
2023-02-14T02:37:37.296Z,48.57
2023-02-14T02:40:35.186Z,48.93
2023-02-14T02:43:31.998Z,52.37
2023-02-14T02:46:40.836Z,51.23
2023-02-14T02:50:03.955Z,54.37
2023-02-14T02:53:07.206Z,52.40
2023-02-14T02:56:16.003Z,49.43
2023-02-14T02:59:06.987Z,49.10
2023-02-14T03:01:56.211Z,51.30
2023-02-14T03:04:54.791Z,47.43
2023-02-14T03:07:41.708Z,48.17
2023-02-14T03:10:31.653Z,46.67
2023-02-14T03:13:48.509Z,49.37
2023-02-14T03:16:36.613Z,47.17
2023-02-14T03:19:50.253Z,47.00
2023-02-14T03:22:44.733Z,44.30
2023-02-14T03:25:42.921Z,46.10
2023-02-14T03:28:35.018Z,46.83
2023-02-14T03:31:25.463Z,46.73
2023-02-14T03:34:15.590Z,47.20
2023-02-14T03:37:04.561Z,46.17
2023-02-14T03:39:59.305Z,50.37
2023-02-14T03:42:48.562Z,53.30
2023-02-14T03:45:36.950Z,56.00
2023-02-14T03:48:25.219Z,52.83
2023-02-14T03:51:10.886Z,54.97
2023-02-14T03:53:58.487Z,55.00
2023-02-14T03:56:46.867Z,55.47
2023-02-14T03:59:32.659Z,55.43
2023-02-14T04:02:21.459Z,57.47
2023-02-14T04:05:11.085Z,65.77
2023-02-14T04:07:57.364Z,58.33
2023-02-14T04:10:43.323Z,58.87
2023-02-14T04:13:27.747Z,59.17
2023-02-14T04:16:13.051Z,57.90
2023-02-14T04:19:14.462Z,58.37
2023-02-14T04:21:58.237Z,53.23
2023-02-14T04:24:42.170Z,53.07
2023-02-14T04:27:25.994Z,52.77
2023-02-14T04:30:12.613Z,47.63
2023-02-14T04:32:58.032Z,45.87
2023-02-14T04:35:41.906Z,39.70
2023-02-14T04:38:25.618Z,37.70
2023-02-14T04:41:09.406Z,39.73
2023-02-14T04:43:53.241Z,42.80
2023-02-14T04:46:37.060Z,35.83
2023-02-14T04:49:22.381Z,37.67
2023-02-14T04:52:07.477Z,44.10
2023-02-14T04:54:51.305Z,45.87
2023-02-14T04:57:35.143Z,45.27
2023-02-14T05:00:20.109Z,36.30
2023-02-14T05:03:04.061Z,40.37
2023-02-14T05:05:49.334Z,38.07
2023-02-14T05:08:33.175Z,35.57
2023-02-14T05:11:17.110Z,34.00
2023-02-14T05:14:01.060Z,34.63
2023-02-14T05:16:45.134Z,45.70
2023-02-14T05:19:29.159Z,37.50
2023-02-14T05:22:15.388Z,48.17
2023-02-14T05:25:00.618Z,37.73
2023-02-14T05:27:44.421Z,35.63
2023-02-14T05:30:29.015Z,33.23
2023-02-14T05:33:13.256Z,33.30
2023-02-14T05:35:59.674Z,37.40
2023-02-14T05:38:44.852Z,34.10
2023-02-14T05:41:28.843Z,36.37
2023-02-14T05:44:12.711Z,29.70
2023-02-14T05:46:56.733Z,34.43
2023-02-14T05:49:40.555Z,38.13
2023-02-14T05:52:24.483Z,38.50
2023-02-14T05:55:10.687Z,46.53
2023-02-14T05:57:54.651Z,46.53
2023-02-14T06:00:41.505Z,46.20
2023-02-14T06:03:25.588Z,42.97
2023-02-14T06:06:09.454Z,43.17
2023-02-14T06:08:53.300Z,43.17
2023-02-14T06:11:38.578Z,44.77
2023-02-14T06:14:22.355Z,44.73
2023-02-14T06:17:06.155Z,48.47
2023-02-14T06:19:50.093Z,44.80
2023-02-14T06:22:34.018Z,48.03
2023-02-14T06:25:18.561Z,49.17
2023-02-14T06:28:03.835Z,44.67
2023-02-14T06:30:48.038Z,45.60
2023-02-14T06:33:31.969Z,31.57
2023-02-14T06:36:16.445Z,36.00
2023-02-14T06:39:00.481Z,40.60
2023-02-14T06:41:44.306Z,45.80
2023-02-14T06:44:29.588Z,47.03
2023-02-14T06:47:13.341Z,43.43
2023-02-14T06:49:57.130Z,43.23
2023-02-14T06:52:42.180Z,41.83
2023-02-14T06:55:26.251Z,43.13
2023-02-14T06:58:10.218Z,45.03
2023-02-14T07:00:57.612Z,42.77
2023-02-14T07:03:41.631Z,28.50
2023-02-14T07:06:25.711Z,25.50
2023-02-14T07:09:09.491Z,21.97
2023-02-14T07:11:53.312Z,21.70
2023-02-14T07:14:37.173Z,22.30
2023-02-14T07:17:22.446Z,19.77
2023-02-14T07:20:11.211Z,22.47
2023-02-14T07:22:55.575Z,22.63
2023-02-14T07:25:40.771Z,20.77
2023-02-14T07:28:24.571Z,22.23
2023-02-14T07:31:08.484Z,22.07
2023-02-14T07:33:53.835Z,21.97
2023-02-14T07:36:38.845Z,21.77
2023-02-14T07:39:22.948Z,21.90
2023-02-14T07:42:08.344Z,22.47
2023-02-14T07:44:52.496Z,27.30
2023-02-14T07:47:36.420Z,19.93
2023-02-14T07:50:23.650Z,19.03
2023-02-14T07:53:08.713Z,21.27
2023-02-14T07:55:53.235Z,19.23
2023-02-14T07:58:37.291Z,21.70
2023-02-14T08:01:21.693Z,18.53
2023-02-14T08:04:05.952Z,21.37
2023-02-14T08:06:51.023Z,20.87
2023-02-14T08:09:34.942Z,20.23
2023-02-14T08:12:35.847Z,20.43
2023-02-14T08:15:37.464Z,19.90
2023-02-14T08:18:23.222Z,19.20
2023-02-14T08:21:09.020Z,21.43
2023-02-14T08:23:54.392Z,19.80
2023-02-14T08:26:38.591Z,19.97
2023-02-14T08:29:22.603Z,19.27
2023-02-14T08:32:06.786Z,21.63
2023-02-14T08:34:50.731Z,23.07
2023-02-14T08:37:34.655Z,18.50
2023-02-14T08:40:20.663Z,19.57
2023-02-14T08:43:05.016Z,22.13
2023-02-14T08:45:50.630Z,18.07
2023-02-14T08:48:39.051Z,20.17
2023-02-14T08:51:23.991Z,20.77
2023-02-14T08:54:07.967Z,21.03
2023-02-14T08:56:53.183Z,20.73
2023-02-14T08:59:37.044Z,22.00
2023-02-14T09:02:21.050Z,20.90
2023-02-14T09:05:06.295Z,22.97
2023-02-14T09:07:50.282Z,21.60
2023-02-14T09:10:34.059Z,21.20
2023-02-14T09:13:19.280Z,21.63
2023-02-14T09:16:05.570Z,23.40
2023-02-14T09:18:50.884Z,22.67
2023-02-14T09:21:35.227Z,22.53
2023-02-14T09:24:19.140Z,21.53
2023-02-14T09:27:02.988Z,22.90
2023-02-14T09:29:48.238Z,21.03
2023-02-14T09:32:32.017Z,20.23
2023-02-14T09:35:16.725Z,20.87
2023-02-14T09:38:19.318Z,20.10
2023-02-14T09:41:08.071Z,18.30
2023-02-14T09:43:59.795Z,18.10
2023-02-14T09:46:49.789Z,18.40
2023-02-14T09:49:37.552Z,18.57
2023-02-14T09:52:23.875Z,17.33
2023-02-14T09:55:15.284Z,19.60
2023-02-14T09:58:07.374Z,18.40
2023-02-14T10:00:58.731Z,20.40
2023-02-14T10:04:09.808Z,18.47
2023-02-14T10:06:58.705Z,18.80
2023-02-14T10:09:53.749Z,18.13
2023-02-14T10:12:41.481Z,18.90
2023-02-14T10:15:28.880Z,16.47
2023-02-14T10:18:20.052Z,16.70
2023-02-14T10:21:08.848Z,13.70
2023-02-14T10:23:59.220Z,16.90
2023-02-14T10:26:44.617Z,12.83
2023-02-14T10:29:28.525Z,13.13
2023-02-14T10:32:16.923Z,15.43
2023-02-14T10:35:07.075Z,13.40
2023-02-14T10:38:02.520Z,13.97
2023-02-14T10:41:02.463Z,12.87
2023-02-14T10:43:55.148Z,13.13
2023-02-14T10:46:46.075Z,11.93
2023-02-14T10:49:44.076Z,11.60
2023-02-14T10:52:34.474Z,11.97
2023-02-14T10:55:32.473Z,13.17
2023-02-14T10:58:20.966Z,11.23
2023-02-14T11:01:08.587Z,14.53
2023-02-14T11:03:56.204Z,12.27
2023-02-14T11:06:40.173Z,11.43
2023-02-14T11:09:24.035Z,13.50
2023-02-14T11:12:10.356Z,11.40
2023-02-14T11:15:10.205Z,13.40
2023-02-14T11:18:11.085Z,10.03
2023-02-14T11:21:03.346Z,11.70
2023-02-14T11:23:48.807Z,10.50
2023-02-14T11:26:35.985Z,11.50
2023-02-14T11:29:28.573Z,11.83
2023-02-14T11:32:16.926Z,12.27
2023-02-14T11:35:02.880Z,13.57
2023-02-14T11:37:53.567Z,11.90
2023-02-14T11:40:39.815Z,11.23
2023-02-14T11:43:33.494Z,12.93
2023-02-14T11:46:28.105Z,10.90
2023-02-14T11:49:28.331Z,18.77
2023-02-14T11:52:17.431Z,12.40
2023-02-14T11:55:02.421Z,11.17
2023-02-14T11:57:47.756Z,10.07
2023-02-14T12:00:32.235Z,9.57
2023-02-14T12:03:20.769Z,9.33
2023-02-14T12:06:04.752Z,15.83
2023-02-14T12:08:48.660Z,9.97
2023-02-14T12:11:33.214Z,8.83
2023-02-14T12:14:23.459Z,9.33
2023-02-14T12:17:20.034Z,9.03
2023-02-14T12:20:13.402Z,10.73
2023-02-14T12:23:03.603Z,9.20
2023-02-14T12:25:54.092Z,10.50
2023-02-14T12:28:42.308Z,9.57
2023-02-14T12:31:26.703Z,9.67
2023-02-14T12:34:13.028Z,9.70
2023-02-14T12:37:13.420Z,9.57
2023-02-14T12:40:21.958Z,8.33
2023-02-14T12:43:23.439Z,8.47
2023-02-14T12:46:22.885Z,8.10
2023-02-14T12:49:23.228Z,8.70
2023-02-14T12:52:24.123Z,8.07
2023-02-14T12:55:28.548Z,8.27
2023-02-14T12:58:23.967Z,8.83
2023-02-14T13:01:38.732Z,9.20
2023-02-14T13:04:41.056Z,7.13
2023-02-14T13:07:44.839Z,8.87
2023-02-14T13:10:46.654Z,7.73
2023-02-14T13:13:42.541Z,7.60
2023-02-14T13:16:35.417Z,5.97
2023-02-14T13:19:34.913Z,7.80
2023-02-14T13:22:21.823Z,9.20
2023-02-14T13:25:14.784Z,7.60
2023-02-14T13:27:59.611Z,6.03
2023-02-14T13:30:43.437Z,8.00
2023-02-14T13:33:34.749Z,8.50
2023-02-14T13:36:20.044Z,6.80
2023-02-14T13:39:05.484Z,7.67
2023-02-14T13:41:50.931Z,7.07
2023-02-14T13:44:44.302Z,9.83
2023-02-14T13:47:28.556Z,7.83
2023-02-14T13:50:22.170Z,7.77
2023-02-14T13:53:06.076Z,10.43
2023-02-14T13:55:55.928Z,8.90
2023-02-14T13:58:48.405Z,6.47
2023-02-14T14:01:39.083Z,11.37
2023-02-14T14:04:37.380Z,8.17
2023-02-14T14:07:24.441Z,8.53
2023-02-14T14:10:13.059Z,7.97
2023-02-14T14:12:57.909Z,23.27
2023-02-14T14:16:21.340Z,7.63
2023-02-14T14:19:11.741Z,6.93
2023-02-14T14:22:03.293Z,7.50
2023-02-14T14:24:54.817Z,8.40
2023-02-14T14:27:45.359Z,8.50
2023-02-14T14:30:33.570Z,7.67
2023-02-14T14:33:28.059Z,7.17
2023-02-14T14:36:23.210Z,7.00
2023-02-14T14:39:07.008Z,7.50
2023-02-14T14:41:51.005Z,7.47
2023-02-14T14:44:36.716Z,7.47
2023-02-14T14:47:24.529Z,7.47
2023-02-14T14:50:17.453Z,7.70
2023-02-14T14:53:04.265Z,7.10
2023-02-14T14:55:52.081Z,7.87
2023-02-14T14:58:38.694Z,7.57
2023-02-14T15:01:34.496Z,7.97
2023-02-14T15:04:20.874Z,7.73
2023-02-14T15:07:21.068Z,8.20
2023-02-14T15:10:05.492Z,8.37
2023-02-14T15:13:07.069Z,7.60
2023-02-14T15:15:52.835Z,7.77
2023-02-14T15:18:36.912Z,7.63
2023-02-14T15:21:21.396Z,7.90
2023-02-14T15:24:14.612Z,7.67
2023-02-14T15:26:58.957Z,7.37
2023-02-14T15:29:42.965Z,7.63
2023-02-14T15:32:29.375Z,7.27
2023-02-14T15:35:16.242Z,7.53
2023-02-14T15:38:03.817Z,8.73
2023-02-14T15:40:49.220Z,8.13
2023-02-14T15:43:34.703Z,8.83
2023-02-14T15:46:27.615Z,9.43
2023-02-14T15:49:16.930Z,21.13
2023-02-14T15:52:04.140Z,29.43
2023-02-14T15:54:49.024Z,31.70
2023-02-14T15:57:35.342Z,20.73
2023-02-14T16:00:22.341Z,19.03
2023-02-14T16:03:09.544Z,37.33
2023-02-14T16:05:54.825Z,18.60
2023-02-14T16:08:41.760Z,11.00
2023-02-14T16:11:31.391Z,15.33
2023-02-14T16:14:31.352Z,16.10
2023-02-14T16:17:34.435Z,13.33
2023-02-14T16:20:25.224Z,11.77
2023-02-14T16:23:19.658Z,12.30
2023-02-14T16:26:03.616Z,11.27
2023-02-14T16:28:47.466Z,9.83
2023-02-14T16:31:33.480Z,12.47
2023-02-14T16:34:17.837Z,11.17
2023-02-14T16:37:08.625Z,18.13
2023-02-14T16:39:56.731Z,12.43
2023-02-14T16:42:41.115Z,10.57
2023-02-14T16:45:25.109Z,17.27
2023-02-14T16:48:10.768Z,17.43
2023-02-14T16:50:54.789Z,19.03
2023-02-14T16:53:38.670Z,22.07
2023-02-14T16:56:26.834Z,14.23
2023-02-14T16:59:11.773Z,12.33
2023-02-14T17:01:55.563Z,11.17
2023-02-14T17:04:41.021Z,11.70
2023-02-14T17:07:25.058Z,11.63
2023-02-14T17:10:17.570Z,10.13
2023-02-14T17:13:03.546Z,10.57
2023-02-14T17:15:47.524Z,11.77
2023-02-14T17:18:33.207Z,11.90
2023-02-14T17:21:22.173Z,12.33
2023-02-14T17:24:06.098Z,12.70
2023-02-14T17:26:49.896Z,10.90
2023-02-14T17:29:33.682Z,12.13
2023-02-14T17:32:17.598Z,13.03
2023-02-14T17:35:03.584Z,14.77
2023-02-14T17:37:49.520Z,15.73
2023-02-14T17:40:33.465Z,13.47
2023-02-14T17:43:17.278Z,13.67
2023-02-14T17:46:01.033Z,12.63
2023-02-14T17:48:45.713Z,12.40
2023-02-14T17:51:30.006Z,16.43
2023-02-14T17:54:15.248Z,14.57
2023-02-14T17:56:58.908Z,22.47
2023-02-14T17:59:45.449Z,24.27
2023-02-14T18:02:29.622Z,23.80
2023-02-14T18:05:13.465Z,22.30
2023-02-14T18:07:57.906Z,20.37
2023-02-14T18:10:43.074Z,27.23
2023-02-14T18:13:27.074Z,19.57
2023-02-14T18:16:12.628Z,18.37
2023-02-14T18:18:56.529Z,24.33
2023-02-14T18:21:41.077Z,19.10
2023-02-14T18:24:24.937Z,18.87
2023-02-14T18:27:10.609Z,17.90
2023-02-14T18:29:54.602Z,20.63
2023-02-14T18:32:38.404Z,19.33
2023-02-14T18:35:22.258Z,19.53
2023-02-14T18:38:06.588Z,19.07
2023-02-14T18:40:51.654Z,20.07
2023-02-14T18:43:37.908Z,20.80
2023-02-14T18:46:23.805Z,20.43
2023-02-14T18:49:08.747Z,21.50
2023-02-14T18:51:52.505Z,22.23
2023-02-14T18:54:36.483Z,20.30
2023-02-14T18:57:20.340Z,19.87
2023-02-14T19:00:12.143Z,17.63
2023-02-14T19:02:56.242Z,21.57
2023-02-14T19:05:40.070Z,20.27
2023-02-14T19:08:23.875Z,19.30
2023-02-14T19:11:12.630Z,19.60
2023-02-14T19:13:58.336Z,20.20
2023-02-14T19:16:50.511Z,19.37
2023-02-14T19:19:36.058Z,19.90
2023-02-14T19:22:20.112Z,20.53
2023-02-14T19:25:03.856Z,19.97
2023-02-14T19:27:48.181Z,19.77
2023-02-14T19:30:31.941Z,21.57
2023-02-14T19:33:17.383Z,21.00
2023-02-14T19:36:02.335Z,20.47
2023-02-14T19:38:48.162Z,21.60
2023-02-14T19:41:34.657Z,21.23
2023-02-14T19:44:20.192Z,21.87
2023-02-14T19:47:15.686Z,23.03
2023-02-14T19:50:10.814Z,22.13
2023-02-14T19:52:54.877Z,23.93
2023-02-14T19:55:40.446Z,22.83
2023-02-14T19:58:26.114Z,24.10
2023-02-14T20:01:21.745Z,23.37
2023-02-14T20:04:07.592Z,23.23
2023-02-14T20:06:54.220Z,22.30
2023-02-14T20:09:38.873Z,23.83
2023-02-14T20:12:22.938Z,23.03
2023-02-14T20:15:10.623Z,23.57
2023-02-14T20:17:54.764Z,25.53
2023-02-14T20:20:52.523Z,23.97
2023-02-14T20:23:38.030Z,23.97
2023-02-14T20:26:23.351Z,20.97
2023-02-14T20:29:09.823Z,24.13
2023-02-14T20:31:55.927Z,24.57
2023-02-14T20:34:40.441Z,22.50
2023-02-14T20:37:24.507Z,23.47
2023-02-14T20:40:12.465Z,24.30
2023-02-14T20:42:56.460Z,24.03
2023-02-14T20:45:40.412Z,23.67
2023-02-14T20:48:24.333Z,25.43
2023-02-14T20:51:13.123Z,25.30
2023-02-14T20:53:57.074Z,24.97
2023-02-14T20:56:42.542Z,24.67
2023-02-14T20:59:28.759Z,25.43
2023-02-14T21:02:13.082Z,23.43
2023-02-14T21:05:00.289Z,23.53
2023-02-14T21:07:44.095Z,24.60
2023-02-14T21:10:28.322Z,23.77
2023-02-14T21:13:13.563Z,22.90
2023-02-14T21:16:02.873Z,18.77
2023-02-14T21:18:52.475Z,21.67
2023-02-14T21:21:38.183Z,21.60
2023-02-14T21:24:21.991Z,22.43
2023-02-14T21:27:06.251Z,21.17
2023-02-14T21:29:51.933Z,21.07
2023-02-14T21:32:35.676Z,23.30
2023-02-14T21:35:19.904Z,22.67
2023-02-14T21:38:03.969Z,22.80
2023-02-14T21:40:48.180Z,24.00
2023-02-14T21:43:34.480Z,23.33
2023-02-14T21:46:24.657Z,24.40
2023-02-14T21:49:26.275Z,24.90
2023-02-14T21:52:10.234Z,24.97
2023-02-14T21:54:54.239Z,24.23
2023-02-14T21:57:38.199Z,24.33
2023-02-14T22:00:23.646Z,24.20
2023-02-14T22:03:09.439Z,21.23
2023-02-14T22:05:54.418Z,25.00
2023-02-14T22:08:38.476Z,24.83
2023-02-14T22:11:23.028Z,25.27
2023-02-14T22:14:07.191Z,26.30
2023-02-14T22:16:51.248Z,20.57
2023-02-14T22:19:37.322Z,25.60
2023-02-14T22:22:21.915Z,23.47
2023-02-14T22:25:06.300Z,24.07
2023-02-14T22:27:50.275Z,22.77
2023-02-14T22:30:34.285Z,22.53
2023-02-14T22:33:18.273Z,24.87
2023-02-14T22:36:04.114Z,24.80
2023-02-14T22:38:48.237Z,22.27
2023-02-14T22:41:33.187Z,22.77
2023-02-14T22:44:17.110Z,23.13
2023-02-14T22:47:01.396Z,22.90
2023-02-14T22:49:45.399Z,18.33
2023-02-14T22:52:30.792Z,20.70
2023-02-14T22:55:14.698Z,21.50
2023-02-14T22:57:58.850Z,20.83
2023-02-14T23:00:42.764Z,21.50
2023-02-14T23:03:26.765Z,19.23
2023-02-14T23:06:11.524Z,16.60
2023-02-14T23:08:57.895Z,18.07
2023-02-14T23:11:44.050Z,17.70
2023-02-14T23:14:45.631Z,17.97
2023-02-14T23:17:46.505Z,19.03
2023-02-14T23:20:48.439Z,18.90
2023-02-14T23:23:32.589Z,15.83
2023-02-14T23:26:21.657Z,15.67
2023-02-14T23:29:05.701Z,15.93
2023-02-14T23:31:49.875Z,14.50
2023-02-14T23:34:36.323Z,14.80
2023-02-14T23:37:20.432Z,14.23
2023-02-14T23:40:04.669Z,15.33
2023-02-14T23:42:50.407Z,14.60
2023-02-14T23:45:38.720Z,12.73
2023-02-14T23:48:22.638Z,14.63
2023-02-14T23:51:06.480Z,13.23
2023-02-14T23:53:50.461Z,13.37
2023-02-14T23:56:35.004Z,13.30
2023-02-14T23:59:21.534Z,11.47
